sensor_id;sensor_type;location;lat;lon;timestamp;P1;durP1;ratioP1;P2;durP2;ratioP2
14778;SDS011;7481;53.750;10.570;2022-12-18T00:02:09;33.20;;;17.37;;
14778;SDS011;7481;53.750;10.570;2022-12-18T00:04:57;32.60;;;15.63;;
14778;SDS011;7481;53.750;10.570;2022-12-18T00:07:47;30.83;;;17.10;;
14778;SDS011;7481;53.750;10.570;2022-12-18T00:10:34;29.23;;;16.27;;
14778;SDS011;7481;53.750;10.570;2022-12-18T00:13:22;33.13;;;18.60;;
14778;SDS011;7481;53.750;10.570;2022-12-18T00:16:11;30.17;;;16.63;;
14778;SDS011;7481;53.750;10.570;2022-12-18T00:18:59;29.67;;;16.70;;
14778;SDS011;7481;53.750;10.570;2022-12-18T00:21:47;39.40;;;18.00;;
14778;SDS011;7481;53.750;10.570;2022-12-18T00:24:34;32.23;;;15.47;;
14778;SDS011;7481;53.750;10.570;2022-12-18T00:27:22;30.50;;;15.73;;
14778;SDS011;7481;53.750;10.570;2022-12-18T00:30:09;34.07;;;17.17;;
14778;SDS011;7481;53.750;10.570;2022-12-18T00:32:57;28.23;;;16.37;;
14778;SDS011;7481;53.750;10.570;2022-12-18T00:35:44;33.77;;;16.67;;
14778;SDS011;7481;53.750;10.570;2022-12-18T00:38:32;31.33;;;16.70;;
14778;SDS011;7481;53.750;10.570;2022-12-18T00:41:19;33.87;;;17.77;;
14778;SDS011;7481;53.750;10.570;2022-12-18T00:44:26;30.43;;;15.37;;
14778;SDS011;7481;53.750;10.570;2022-12-18T00:47:13;33.13;;;17.00;;
14778;SDS011;7481;53.750;10.570;2022-12-18T00:50:00;32.00;;;16.73;;
14778;SDS011;7481;53.750;10.570;2022-12-18T00:52:48;32.27;;;17.40;;
14778;SDS011;7481;53.750;10.570;2022-12-18T00:55:36;29.77;;;16.60;;
14778;SDS011;7481;53.750;10.570;2022-12-18T00:58:24;28.10;;;15.27;;
14778;SDS011;7481;53.750;10.570;2022-12-18T01:01:11;39.83;;;18.10;;
14778;SDS011;7481;53.750;10.570;2022-12-18T01:04:00;31.53;;;16.80;;
14778;SDS011;7481;53.750;10.570;2022-12-18T01:06:47;29.90;;;15.90;;
14778;SDS011;7481;53.750;10.570;2022-12-18T01:09:35;27.17;;;14.50;;
14778;SDS011;7481;53.750;10.570;2022-12-18T01:12:22;29.07;;;14.50;;
14778;SDS011;7481;53.750;10.570;2022-12-18T01:15:10;26.20;;;14.83;;
14778;SDS011;7481;53.750;10.570;2022-12-18T01:17:58;27.17;;;14.30;;
14778;SDS011;7481;53.750;10.570;2022-12-18T01:20:46;27.57;;;13.70;;
14778;SDS011;7481;53.750;10.570;2022-12-18T01:23:34;29.73;;;15.20;;
14778;SDS011;7481;53.750;10.570;2022-12-18T01:26:22;23.87;;;13.07;;
14778;SDS011;7481;53.750;10.570;2022-12-18T01:29:10;24.70;;;13.07;;
14778;SDS011;7481;53.750;10.570;2022-12-18T01:31:57;28.10;;;14.17;;
14778;SDS011;7481;53.750;10.570;2022-12-18T01:34:45;26.07;;;13.67;;
14778;SDS011;7481;53.750;10.570;2022-12-18T01:37:32;29.20;;;13.47;;
14778;SDS011;7481;53.750;10.570;2022-12-18T01:40:20;26.83;;;14.90;;
14778;SDS011;7481;53.750;10.570;2022-12-18T01:43:08;25.17;;;14.57;;
14778;SDS011;7481;53.750;10.570;2022-12-18T01:45:58;28.47;;;14.93;;
14778;SDS011;7481;53.750;10.570;2022-12-18T01:48:47;26.80;;;14.40;;
14778;SDS011;7481;53.750;10.570;2022-12-18T01:51:34;28.67;;;15.10;;
14778;SDS011;7481;53.750;10.570;2022-12-18T01:54:22;28.30;;;15.20;;
14778;SDS011;7481;53.750;10.570;2022-12-18T01:57:09;27.47;;;15.07;;
14778;SDS011;7481;53.750;10.570;2022-12-18T01:59:59;28.83;;;15.93;;
14778;SDS011;7481;53.750;10.570;2022-12-18T02:02:47;24.03;;;14.07;;
14778;SDS011;7481;53.750;10.570;2022-12-18T02:05:40;30.27;;;14.23;;
14778;SDS011;7481;53.750;10.570;2022-12-18T02:11:22;29.33;;;14.77;;
14778;SDS011;7481;53.750;10.570;2022-12-18T02:14:21;32.27;;;15.07;;
14778;SDS011;7481;53.750;10.570;2022-12-18T02:17:23;29.10;;;14.77;;
14778;SDS011;7481;53.750;10.570;2022-12-18T02:20:23;30.10;;;14.97;;
14778;SDS011;7481;53.750;10.570;2022-12-18T02:28:53;28.97;;;13.97;;
14778;SDS011;7481;53.750;10.570;2022-12-18T02:31:47;29.13;;;15.43;;
14778;SDS011;7481;53.750;10.570;2022-12-18T02:34:37;26.90;;;14.00;;
14778;SDS011;7481;53.750;10.570;2022-12-18T02:37:24;27.67;;;13.87;;
14778;SDS011;7481;53.750;10.570;2022-12-18T02:40:13;27.07;;;14.33;;
14778;SDS011;7481;53.750;10.570;2022-12-18T02:43:11;26.73;;;13.97;;
14778;SDS011;7481;53.750;10.570;2022-12-18T02:45:59;25.40;;;13.33;;
14778;SDS011;7481;53.750;10.570;2022-12-18T02:48:47;27.57;;;13.97;;
14778;SDS011;7481;53.750;10.570;2022-12-18T02:51:39;27.23;;;13.57;;
14778;SDS011;7481;53.750;10.570;2022-12-18T02:54:51;24.80;;;13.67;;
14778;SDS011;7481;53.750;10.570;2022-12-18T02:57:44;26.53;;;13.73;;
14778;SDS011;7481;53.750;10.570;2022-12-18T03:00:35;29.80;;;14.63;;
14778;SDS011;7481;53.750;10.570;2022-12-18T03:04:09;24.77;;;14.10;;
14778;SDS011;7481;53.750;10.570;2022-12-18T03:06:37;25.47;;;12.00;;
14778;SDS011;7481;53.750;10.570;2022-12-18T03:09:34;24.40;;;13.30;;
14778;SDS011;7481;53.750;10.570;2022-12-18T03:12:24;25.13;;;13.73;;
14778;SDS011;7481;53.750;10.570;2022-12-18T03:15:15;26.43;;;13.17;;
14778;SDS011;7481;53.750;10.570;2022-12-18T03:18:05;28.17;;;13.40;;
14778;SDS011;7481;53.750;10.570;2022-12-18T03:20:53;28.10;;;12.80;;
14778;SDS011;7481;53.750;10.570;2022-12-18T03:23:46;28.57;;;14.63;;
14778;SDS011;7481;53.750;10.570;2022-12-18T03:26:34;26.83;;;14.63;;
14778;SDS011;7481;53.750;10.570;2022-12-18T03:29:28;23.57;;;13.27;;
14778;SDS011;7481;53.750;10.570;2022-12-18T03:32:21;26.37;;;13.87;;
14778;SDS011;7481;53.750;10.570;2022-12-18T03:35:11;26.37;;;13.73;;
14778;SDS011;7481;53.750;10.570;2022-12-18T03:38:00;29.07;;;14.90;;
14778;SDS011;7481;53.750;10.570;2022-12-18T03:40:56;25.63;;;13.97;;
14778;SDS011;7481;53.750;10.570;2022-12-18T03:46:43;30.40;;;14.40;;
14778;SDS011;7481;53.750;10.570;2022-12-18T03:49:34;27.80;;;13.47;;
14778;SDS011;7481;53.750;10.570;2022-12-18T03:55:24;29.50;;;15.33;;
14778;SDS011;7481;53.750;10.570;2022-12-18T03:58:15;27.10;;;14.10;;
14778;SDS011;7481;53.750;10.570;2022-12-18T04:01:05;30.73;;;15.37;;
14778;SDS011;7481;53.750;10.570;2022-12-18T04:03:54;32.83;;;15.53;;
14778;SDS011;7481;53.750;10.570;2022-12-18T04:06:43;31.53;;;14.93;;
14778;SDS011;7481;53.750;10.570;2022-12-18T04:09:31;31.10;;;15.70;;
14778;SDS011;7481;53.750;10.570;2022-12-18T04:12:19;34.30;;;15.77;;
14778;SDS011;7481;53.750;10.570;2022-12-18T04:15:07;32.70;;;16.33;;
14778;SDS011;7481;53.750;10.570;2022-12-18T04:17:54;36.33;;;16.47;;
14778;SDS011;7481;53.750;10.570;2022-12-18T04:20:42;32.60;;;17.47;;
14778;SDS011;7481;53.750;10.570;2022-12-18T04:23:29;33.63;;;15.80;;
14778;SDS011;7481;53.750;10.570;2022-12-18T04:26:16;29.87;;;16.80;;
14778;SDS011;7481;53.750;10.570;2022-12-18T04:29:04;33.80;;;16.70;;
14778;SDS011;7481;53.750;10.570;2022-12-18T04:31:51;31.70;;;15.30;;
14778;SDS011;7481;53.750;10.570;2022-12-18T04:34:38;30.40;;;15.33;;
14778;SDS011;7481;53.750;10.570;2022-12-18T04:37:26;30.17;;;15.30;;
14778;SDS011;7481;53.750;10.570;2022-12-18T04:40:13;36.97;;;16.43;;
14778;SDS011;7481;53.750;10.570;2022-12-18T04:43:01;34.30;;;15.27;;
14778;SDS011;7481;53.750;10.570;2022-12-18T04:45:48;33.77;;;16.20;;
14778;SDS011;7481;53.750;10.570;2022-12-18T04:48:36;31.83;;;14.73;;
14778;SDS011;7481;53.750;10.570;2022-12-18T04:51:23;31.17;;;16.40;;
14778;SDS011;7481;53.750;10.570;2022-12-18T04:54:12;33.93;;;16.00;;
14778;SDS011;7481;53.750;10.570;2022-12-18T04:56:59;34.17;;;16.37;;
14778;SDS011;7481;53.750;10.570;2022-12-18T04:59:47;31.53;;;14.77;;
14778;SDS011;7481;53.750;10.570;2022-12-18T05:02:34;32.53;;;15.83;;
14778;SDS011;7481;53.750;10.570;2022-12-18T05:05:22;30.90;;;14.60;;
14778;SDS011;7481;53.750;10.570;2022-12-18T05:08:09;34.73;;;15.60;;
14778;SDS011;7481;53.750;10.570;2022-12-18T05:13:47;33.73;;;15.13;;
14778;SDS011;7481;53.750;10.570;2022-12-18T05:16:34;35.83;;;15.50;;
14778;SDS011;7481;53.750;10.570;2022-12-18T05:19:22;34.67;;;16.83;;
14778;SDS011;7481;53.750;10.570;2022-12-18T05:22:09;34.40;;;16.87;;
14778;SDS011;7481;53.750;10.570;2022-12-18T05:24:57;31.90;;;14.87;;
14778;SDS011;7481;53.750;10.570;2022-12-18T05:27:44;37.57;;;15.07;;
14778;SDS011;7481;53.750;10.570;2022-12-18T05:30:31;34.27;;;16.57;;
14778;SDS011;7481;53.750;10.570;2022-12-18T05:33:19;30.97;;;15.90;;
14778;SDS011;7481;53.750;10.570;2022-12-18T05:36:07;36.90;;;16.40;;
14778;SDS011;7481;53.750;10.570;2022-12-18T05:38:55;36.13;;;15.30;;
14778;SDS011;7481;53.750;10.570;2022-12-18T05:41:42;33.60;;;15.43;;
14778;SDS011;7481;53.750;10.570;2022-12-18T05:44:30;30.83;;;15.50;;
14778;SDS011;7481;53.750;10.570;2022-12-18T05:47:17;33.37;;;15.87;;
14778;SDS011;7481;53.750;10.570;2022-12-18T05:50:05;32.43;;;15.17;;
14778;SDS011;7481;53.750;10.570;2022-12-18T05:52:53;30.90;;;15.77;;
14778;SDS011;7481;53.750;10.570;2022-12-18T05:55:41;35.57;;;14.57;;
14778;SDS011;7481;53.750;10.570;2022-12-18T05:58:29;36.30;;;15.40;;
14778;SDS011;7481;53.750;10.570;2022-12-18T06:01:17;30.40;;;15.10;;
14778;SDS011;7481;53.750;10.570;2022-12-18T06:04:05;34.80;;;15.97;;
14778;SDS011;7481;53.750;10.570;2022-12-18T06:06:53;34.13;;;15.77;;
14778;SDS011;7481;53.750;10.570;2022-12-18T06:09:40;34.33;;;15.40;;
14778;SDS011;7481;53.750;10.570;2022-12-18T06:12:28;34.93;;;15.80;;
14778;SDS011;7481;53.750;10.570;2022-12-18T06:15:15;37.57;;;15.20;;
14778;SDS011;7481;53.750;10.570;2022-12-18T06:18:03;34.93;;;15.60;;
14778;SDS011;7481;53.750;10.570;2022-12-18T06:20:56;31.83;;;14.87;;
14778;SDS011;7481;53.750;10.570;2022-12-18T06:23:44;34.87;;;15.93;;
14778;SDS011;7481;53.750;10.570;2022-12-18T06:26:31;38.53;;;15.37;;
14778;SDS011;7481;53.750;10.570;2022-12-18T06:29:18;39.13;;;15.33;;
14778;SDS011;7481;53.750;10.570;2022-12-18T06:32:06;38.97;;;15.93;;
14778;SDS011;7481;53.750;10.570;2022-12-18T06:34:53;33.20;;;14.17;;
14778;SDS011;7481;53.750;10.570;2022-12-18T06:37:41;35.20;;;15.17;;
14778;SDS011;7481;53.750;10.570;2022-12-18T06:40:29;38.73;;;14.80;;
14778;SDS011;7481;53.750;10.570;2022-12-18T06:43:16;32.80;;;15.03;;
14778;SDS011;7481;53.750;10.570;2022-12-18T06:46:04;35.00;;;14.53;;
14778;SDS011;7481;53.750;10.570;2022-12-18T06:48:51;35.63;;;14.27;;
14778;SDS011;7481;53.750;10.570;2022-12-18T06:51:39;36.40;;;15.37;;
14778;SDS011;7481;53.750;10.570;2022-12-18T06:54:26;36.03;;;15.33;;
14778;SDS011;7481;53.750;10.570;2022-12-18T06:57:14;38.27;;;16.00;;
14778;SDS011;7481;53.750;10.570;2022-12-18T07:00:01;36.87;;;16.53;;
14778;SDS011;7481;53.750;10.570;2022-12-18T07:02:49;31.50;;;13.53;;
14778;SDS011;7481;53.750;10.570;2022-12-18T07:05:40;36.73;;;14.93;;
14778;SDS011;7481;53.750;10.570;2022-12-18T07:08:28;44.30;;;14.90;;
14778;SDS011;7481;53.750;10.570;2022-12-18T07:11:16;34.60;;;14.27;;
14778;SDS011;7481;53.750;10.570;2022-12-18T07:14:03;37.50;;;16.13;;
14778;SDS011;7481;53.750;10.570;2022-12-18T07:16:51;38.00;;;16.43;;
14778;SDS011;7481;53.750;10.570;2022-12-18T07:19:38;35.50;;;14.27;;
14778;SDS011;7481;53.750;10.570;2022-12-18T07:22:26;41.30;;;16.47;;
14778;SDS011;7481;53.750;10.570;2022-12-18T07:25:13;34.30;;;13.67;;
14778;SDS011;7481;53.750;10.570;2022-12-18T07:28:01;35.17;;;14.30;;
14778;SDS011;7481;53.750;10.570;2022-12-18T07:30:48;41.30;;;15.03;;
14778;SDS011;7481;53.750;10.570;2022-12-18T07:33:36;30.90;;;13.17;;
14778;SDS011;7481;53.750;10.570;2022-12-18T07:36:24;34.57;;;15.13;;
14778;SDS011;7481;53.750;10.570;2022-12-18T07:39:11;33.67;;;13.97;;
14778;SDS011;7481;53.750;10.570;2022-12-18T07:41:58;34.97;;;15.13;;
14778;SDS011;7481;53.750;10.570;2022-12-18T07:45:07;37.67;;;14.20;;
14778;SDS011;7481;53.750;10.570;2022-12-18T07:47:55;36.10;;;15.13;;
14778;SDS011;7481;53.750;10.570;2022-12-18T07:50:42;40.13;;;16.03;;
14778;SDS011;7481;53.750;10.570;2022-12-18T07:53:30;33.30;;;14.77;;
14778;SDS011;7481;53.750;10.570;2022-12-18T07:56:17;40.30;;;15.37;;
14778;SDS011;7481;53.750;10.570;2022-12-18T07:59:14;38.07;;;14.87;;
14778;SDS011;7481;53.750;10.570;2022-12-18T08:02:02;35.63;;;14.10;;
14778;SDS011;7481;53.750;10.570;2022-12-18T08:04:49;33.67;;;14.73;;
14778;SDS011;7481;53.750;10.570;2022-12-18T08:07:37;43.70;;;16.93;;
14778;SDS011;7481;53.750;10.570;2022-12-18T08:10:24;37.33;;;14.47;;
14778;SDS011;7481;53.750;10.570;2022-12-18T08:13:12;32.97;;;14.17;;
14778;SDS011;7481;53.750;10.570;2022-12-18T08:16:00;33.30;;;14.40;;
14778;SDS011;7481;53.750;10.570;2022-12-18T08:18:48;35.77;;;14.40;;
14778;SDS011;7481;53.750;10.570;2022-12-18T08:21:36;33.60;;;13.63;;
14778;SDS011;7481;53.750;10.570;2022-12-18T08:24:27;32.13;;;13.77;;
14778;SDS011;7481;53.750;10.570;2022-12-18T08:27:14;37.80;;;16.60;;
14778;SDS011;7481;53.750;10.570;2022-12-18T08:30:17;35.07;;;13.73;;
14778;SDS011;7481;53.750;10.570;2022-12-18T08:33:05;37.47;;;16.13;;
14778;SDS011;7481;53.750;10.570;2022-12-18T08:35:53;34.93;;;15.03;;
14778;SDS011;7481;53.750;10.570;2022-12-18T08:38:40;46.40;;;19.33;;
14778;SDS011;7481;53.750;10.570;2022-12-18T08:41:27;45.43;;;19.33;;
14778;SDS011;7481;53.750;10.570;2022-12-18T08:44:16;41.83;;;16.37;;
14778;SDS011;7481;53.750;10.570;2022-12-18T08:47:22;34.03;;;14.53;;
14778;SDS011;7481;53.750;10.570;2022-12-18T08:50:09;35.20;;;14.60;;
14778;SDS011;7481;53.750;10.570;2022-12-18T08:52:58;40.90;;;16.53;;
14778;SDS011;7481;53.750;10.570;2022-12-18T08:55:45;37.80;;;15.30;;
14778;SDS011;7481;53.750;10.570;2022-12-18T08:58:36;37.97;;;15.13;;
14778;SDS011;7481;53.750;10.570;2022-12-18T09:01:23;40.13;;;15.73;;
14778;SDS011;7481;53.750;10.570;2022-12-18T09:04:10;38.13;;;15.83;;
14778;SDS011;7481;53.750;10.570;2022-12-18T09:06:58;43.00;;;16.23;;
14778;SDS011;7481;53.750;10.570;2022-12-18T09:09:45;37.07;;;15.63;;
14778;SDS011;7481;53.750;10.570;2022-12-18T09:12:33;35.57;;;14.73;;
14778;SDS011;7481;53.750;10.570;2022-12-18T09:15:20;37.87;;;16.10;;
14778;SDS011;7481;53.750;10.570;2022-12-18T09:18:07;34.80;;;15.50;;
14778;SDS011;7481;53.750;10.570;2022-12-18T09:20:55;30.60;;;14.20;;
14778;SDS011;7481;53.750;10.570;2022-12-18T09:23:42;35.10;;;14.27;;
14778;SDS011;7481;53.750;10.570;2022-12-18T09:26:30;33.93;;;14.73;;
14778;SDS011;7481;53.750;10.570;2022-12-18T09:29:18;29.13;;;13.97;;
14778;SDS011;7481;53.750;10.570;2022-12-18T09:32:05;31.97;;;14.47;;
14778;SDS011;7481;53.750;10.570;2022-12-18T09:34:52;34.90;;;14.57;;
14778;SDS011;7481;53.750;10.570;2022-12-18T09:37:40;33.37;;;14.20;;
14778;SDS011;7481;53.750;10.570;2022-12-18T09:40:29;39.03;;;15.30;;
14778;SDS011;7481;53.750;10.570;2022-12-18T09:43:22;30.37;;;14.63;;
14778;SDS011;7481;53.750;10.570;2022-12-18T09:46:16;43.08;;;19.17;;
14778;SDS011;7481;53.750;10.570;2022-12-18T09:49:06;38.07;;;15.60;;
14778;SDS011;7481;53.750;10.570;2022-12-18T09:51:58;36.07;;;18.60;;
14778;SDS011;7481;53.750;10.570;2022-12-18T09:54:50;38.30;;;15.40;;
14778;SDS011;7481;53.750;10.570;2022-12-18T09:57:39;31.23;;;15.00;;
14778;SDS011;7481;53.750;10.570;2022-12-18T10:00:29;31.00;;;14.07;;
14778;SDS011;7481;53.750;10.570;2022-12-18T10:03:16;35.87;;;14.53;;
14778;SDS011;7481;53.750;10.570;2022-12-18T10:12:14;28.60;;;12.00;;
14778;SDS011;7481;53.750;10.570;2022-12-18T10:15:07;26.10;;;12.87;;
14778;SDS011;7481;53.750;10.570;2022-12-18T10:18:01;31.27;;;12.70;;
14778;SDS011;7481;53.750;10.570;2022-12-18T10:20:52;27.07;;;13.37;;
14778;SDS011;7481;53.750;10.570;2022-12-18T10:26:34;28.80;;;12.40;;
14778;SDS011;7481;53.750;10.570;2022-12-18T10:29:21;26.07;;;12.97;;
14778;SDS011;7481;53.750;10.570;2022-12-18T10:32:16;31.30;;;13.73;;
14778;SDS011;7481;53.750;10.570;2022-12-18T10:35:04;24.43;;;11.67;;
14778;SDS011;7481;53.750;10.570;2022-12-18T10:43:41;27.97;;;13.60;;
14778;SDS011;7481;53.750;10.570;2022-12-18T10:46:28;25.50;;;12.87;;
14778;SDS011;7481;53.750;10.570;2022-12-18T10:49:23;23.57;;;11.90;;
14778;SDS011;7481;53.750;10.570;2022-12-18T10:52:17;26.30;;;12.40;;
14778;SDS011;7481;53.750;10.570;2022-12-18T10:55:06;27.73;;;12.73;;
14778;SDS011;7481;53.750;10.570;2022-12-18T10:58:16;25.77;;;12.47;;
14778;SDS011;7481;53.750;10.570;2022-12-18T11:01:12;23.93;;;11.47;;
14778;SDS011;7481;53.750;10.570;2022-12-18T11:04:02;23.00;;;11.93;;
14778;SDS011;7481;53.750;10.570;2022-12-18T11:09:40;27.70;;;13.67;;
14778;SDS011;7481;53.750;10.570;2022-12-18T11:12:27;28.00;;;12.53;;
14778;SDS011;7481;53.750;10.570;2022-12-18T11:15:19;25.53;;;11.60;;
14778;SDS011;7481;53.750;10.570;2022-12-18T11:18:16;28.17;;;12.43;;
14778;SDS011;7481;53.750;10.570;2022-12-18T11:21:08;29.60;;;12.93;;
14778;SDS011;7481;53.750;10.570;2022-12-18T11:23:56;27.87;;;12.67;;
14778;SDS011;7481;53.750;10.570;2022-12-18T11:26:44;25.37;;;11.57;;
14778;SDS011;7481;53.750;10.570;2022-12-18T11:29:38;27.47;;;12.43;;
14778;SDS011;7481;53.750;10.570;2022-12-18T11:32:38;29.63;;;12.60;;
14778;SDS011;7481;53.750;10.570;2022-12-18T11:38:33;30.03;;;12.57;;
14778;SDS011;7481;53.750;10.570;2022-12-18T11:44:09;28.53;;;14.00;;
14778;SDS011;7481;53.750;10.570;2022-12-18T11:47:03;26.70;;;12.07;;
14778;SDS011;7481;53.750;10.570;2022-12-18T11:49:52;31.70;;;13.30;;
14778;SDS011;7481;53.750;10.570;2022-12-18T11:52:40;32.00;;;13.93;;
14778;SDS011;7481;53.750;10.570;2022-12-18T12:01:28;32.87;;;13.50;;
14778;SDS011;7481;53.750;10.570;2022-12-18T12:07:40;26.40;;;12.97;;
14778;SDS011;7481;53.750;10.570;2022-12-18T12:16:22;33.17;;;12.93;;
14778;SDS011;7481;53.750;10.570;2022-12-18T12:24:59;27.73;;;12.60;;
14778;SDS011;7481;53.750;10.570;2022-12-18T12:30:58;28.83;;;12.37;;
14778;SDS011;7481;53.750;10.570;2022-12-18T12:37:15;27.07;;;11.63;;
14778;SDS011;7481;53.750;10.570;2022-12-18T12:40:06;31.00;;;13.10;;
14778;SDS011;7481;53.750;10.570;2022-12-18T12:46:21;33.30;;;14.10;;
14778;SDS011;7481;53.750;10.570;2022-12-18T12:49:12;31.50;;;14.23;;
14778;SDS011;7481;53.750;10.570;2022-12-18T12:52:06;29.30;;;13.07;;
14778;SDS011;7481;53.750;10.570;2022-12-18T12:54:54;36.17;;;12.63;;
14778;SDS011;7481;53.750;10.570;2022-12-18T12:57:48;27.10;;;13.77;;
14778;SDS011;7481;53.750;10.570;2022-12-18T13:00:40;29.47;;;13.03;;
14778;SDS011;7481;53.750;10.570;2022-12-18T13:03:38;32.63;;;13.80;;
14778;SDS011;7481;53.750;10.570;2022-12-18T13:06:41;31.33;;;12.90;;
14778;SDS011;7481;53.750;10.570;2022-12-18T13:09:32;29.20;;;12.77;;
14778;SDS011;7481;53.750;10.570;2022-12-18T13:12:23;29.50;;;12.93;;
14778;SDS011;7481;53.750;10.570;2022-12-18T13:15:31;26.07;;;11.97;;
14778;SDS011;7481;53.750;10.570;2022-12-18T13:18:24;26.30;;;12.43;;
14778;SDS011;7481;53.750;10.570;2022-12-18T13:21:26;30.17;;;12.80;;
14778;SDS011;7481;53.750;10.570;2022-12-18T13:24:28;28.53;;;11.90;;
14778;SDS011;7481;53.750;10.570;2022-12-18T13:36:33;33.57;;;13.60;;
14778;SDS011;7481;53.750;10.570;2022-12-18T13:39:23;35.37;;;14.33;;
14778;SDS011;7481;53.750;10.570;2022-12-18T13:45:37;28.50;;;12.20;;
14778;SDS011;7481;53.750;10.570;2022-12-18T13:48:27;33.03;;;13.57;;
14778;SDS011;7481;53.750;10.570;2022-12-18T13:51:16;30.47;;;13.10;;
14778;SDS011;7481;53.750;10.570;2022-12-18T14:00:31;37.37;;;15.67;;
14778;SDS011;7481;53.750;10.570;2022-12-18T14:03:23;35.37;;;15.80;;
14778;SDS011;7481;53.750;10.570;2022-12-18T14:06:12;34.47;;;14.67;;
14778;SDS011;7481;53.750;10.570;2022-12-18T14:09:00;33.67;;;13.60;;
14778;SDS011;7481;53.750;10.570;2022-12-18T14:11:50;35.83;;;14.53;;
14778;SDS011;7481;53.750;10.570;2022-12-18T14:14:37;38.60;;;14.37;;
14778;SDS011;7481;53.750;10.570;2022-12-18T14:17:27;38.73;;;16.57;;
14778;SDS011;7481;53.750;10.570;2022-12-18T14:20:15;41.33;;;15.30;;
14778;SDS011;7481;53.750;10.570;2022-12-18T14:23:04;37.07;;;14.37;;
14778;SDS011;7481;53.750;10.570;2022-12-18T14:25:51;45.27;;;16.63;;
14778;SDS011;7481;53.750;10.570;2022-12-18T14:28:43;40.00;;;15.20;;
14778;SDS011;7481;53.750;10.570;2022-12-18T14:31:31;36.90;;;14.70;;
14778;SDS011;7481;53.750;10.570;2022-12-18T14:34:18;39.90;;;14.27;;
14778;SDS011;7481;53.750;10.570;2022-12-18T14:37:07;36.53;;;14.53;;
14778;SDS011;7481;53.750;10.570;2022-12-18T14:42:44;47.43;;;18.23;;
14778;SDS011;7481;53.750;10.570;2022-12-18T14:48:35;36.83;;;15.00;;
14778;SDS011;7481;53.750;10.570;2022-12-18T14:51:24;40.30;;;14.93;;
14778;SDS011;7481;53.750;10.570;2022-12-18T14:54:16;40.25;;;15.80;;
14778;SDS011;7481;53.750;10.570;2022-12-18T14:59:51;40.33;;;14.93;;
14778;SDS011;7481;53.750;10.570;2022-12-18T15:02:38;40.30;;;16.27;;
14778;SDS011;7481;53.750;10.570;2022-12-18T15:05:30;44.27;;;17.87;;
14778;SDS011;7481;53.750;10.570;2022-12-18T15:08:35;41.30;;;17.10;;
14778;SDS011;7481;53.750;10.570;2022-12-18T15:11:26;38.23;;;15.23;;
14778;SDS011;7481;53.750;10.570;2022-12-18T15:17:18;46.78;;;19.95;;
14778;SDS011;7481;53.750;10.570;2022-12-18T15:20:10;36.03;;;17.17;;
14778;SDS011;7481;53.750;10.570;2022-12-18T15:22:58;40.57;;;15.13;;
14778;SDS011;7481;53.750;10.570;2022-12-18T15:25:46;38.47;;;15.97;;
14778;SDS011;7481;53.750;10.570;2022-12-18T15:31:29;37.17;;;16.23;;
14778;SDS011;7481;53.750;10.570;2022-12-18T15:34:20;43.07;;;16.70;;
14778;SDS011;7481;53.750;10.570;2022-12-18T15:37:08;40.70;;;15.60;;
14778;SDS011;7481;53.750;10.570;2022-12-18T15:39:56;34.70;;;14.50;;
14778;SDS011;7481;53.750;10.570;2022-12-18T15:42:43;35.93;;;15.40;;
14778;SDS011;7481;53.750;10.570;2022-12-18T15:45:50;32.50;;;13.13;;
14778;SDS011;7481;53.750;10.570;2022-12-18T15:48:39;31.73;;;13.03;;
14778;SDS011;7481;53.750;10.570;2022-12-18T15:51:32;35.70;;;15.20;;
14778;SDS011;7481;53.750;10.570;2022-12-18T15:54:20;36.30;;;15.57;;
14778;SDS011;7481;53.750;10.570;2022-12-18T15:57:28;38.53;;;18.38;;
14778;SDS011;7481;53.750;10.570;2022-12-18T16:00:15;35.93;;;16.77;;
14778;SDS011;7481;53.750;10.570;2022-12-18T16:03:03;33.40;;;14.30;;
14778;SDS011;7481;53.750;10.570;2022-12-18T16:05:51;32.93;;;14.17;;
14778;SDS011;7481;53.750;10.570;2022-12-18T16:08:39;31.17;;;13.73;;
14778;SDS011;7481;53.750;10.570;2022-12-18T16:11:27;34.40;;;14.33;;
14778;SDS011;7481;53.750;10.570;2022-12-18T16:14:25;32.73;;;13.27;;
14778;SDS011;7481;53.750;10.570;2022-12-18T16:17:13;37.27;;;14.93;;
14778;SDS011;7481;53.750;10.570;2022-12-18T16:20:01;40.37;;;16.30;;
14778;SDS011;7481;53.750;10.570;2022-12-18T16:22:48;38.80;;;15.27;;
14778;SDS011;7481;53.750;10.570;2022-12-18T16:25:36;37.63;;;14.30;;
14778;SDS011;7481;53.750;10.570;2022-12-18T16:28:23;36.07;;;15.03;;
14778;SDS011;7481;53.750;10.570;2022-12-18T16:31:11;35.70;;;15.90;;
14778;SDS011;7481;53.750;10.570;2022-12-18T16:36:59;35.80;;;15.50;;
14778;SDS011;7481;53.750;10.570;2022-12-18T16:39:51;37.27;;;15.07;;
14778;SDS011;7481;53.750;10.570;2022-12-18T16:42:39;33.20;;;13.93;;
14778;SDS011;7481;53.750;10.570;2022-12-18T16:45:26;31.83;;;15.07;;
14778;SDS011;7481;53.750;10.570;2022-12-18T16:48:19;30.37;;;14.67;;
14778;SDS011;7481;53.750;10.570;2022-12-18T16:51:06;38.33;;;15.37;;
14778;SDS011;7481;53.750;10.570;2022-12-18T16:53:54;35.23;;;14.23;;
14778;SDS011;7481;53.750;10.570;2022-12-18T16:56:42;35.13;;;14.20;;
14778;SDS011;7481;53.750;10.570;2022-12-18T16:59:29;31.80;;;14.40;;
14778;SDS011;7481;53.750;10.570;2022-12-18T17:02:21;32.43;;;14.27;;
14778;SDS011;7481;53.750;10.570;2022-12-18T17:05:10;28.20;;;13.40;;
14778;SDS011;7481;53.750;10.570;2022-12-18T17:07:57;33.43;;;14.67;;
14778;SDS011;7481;53.750;10.570;2022-12-18T17:10:44;32.40;;;13.43;;
14778;SDS011;7481;53.750;10.570;2022-12-18T17:13:32;31.37;;;13.13;;
14778;SDS011;7481;53.750;10.570;2022-12-18T17:16:20;33.47;;;14.63;;
14778;SDS011;7481;53.750;10.570;2022-12-18T17:19:08;31.70;;;13.57;;
14778;SDS011;7481;53.750;10.570;2022-12-18T17:22:02;35.73;;;13.83;;
14778;SDS011;7481;53.750;10.570;2022-12-18T17:24:50;29.87;;;13.80;;
14778;SDS011;7481;53.750;10.570;2022-12-18T17:27:37;29.83;;;14.13;;
14778;SDS011;7481;53.750;10.570;2022-12-18T17:30:25;34.27;;;14.13;;
14778;SDS011;7481;53.750;10.570;2022-12-18T17:33:13;38.17;;;14.67;;
14778;SDS011;7481;53.750;10.570;2022-12-18T17:36:01;32.77;;;14.07;;
14778;SDS011;7481;53.750;10.570;2022-12-18T17:38:49;31.03;;;13.23;;
14778;SDS011;7481;53.750;10.570;2022-12-18T17:41:37;27.70;;;14.13;;
14778;SDS011;7481;53.750;10.570;2022-12-18T17:44:24;29.33;;;12.97;;
14778;SDS011;7481;53.750;10.570;2022-12-18T17:47:12;29.43;;;13.33;;
14778;SDS011;7481;53.750;10.570;2022-12-18T17:49:59;28.43;;;12.97;;
14778;SDS011;7481;53.750;10.570;2022-12-18T17:52:48;23.33;;;12.07;;
14778;SDS011;7481;53.750;10.570;2022-12-18T17:55:35;29.33;;;13.87;;
14778;SDS011;7481;53.750;10.570;2022-12-18T17:58:22;27.60;;;12.73;;
14778;SDS011;7481;53.750;10.570;2022-12-18T18:01:13;24.90;;;12.20;;
14778;SDS011;7481;53.750;10.570;2022-12-18T18:04:03;32.13;;;13.63;;
14778;SDS011;7481;53.750;10.570;2022-12-18T18:06:50;28.60;;;12.30;;
14778;SDS011;7481;53.750;10.570;2022-12-18T18:09:38;27.37;;;12.77;;
14778;SDS011;7481;53.750;10.570;2022-12-18T18:12:25;27.17;;;12.10;;
14778;SDS011;7481;53.750;10.570;2022-12-18T18:15:32;29.20;;;13.13;;
14778;SDS011;7481;53.750;10.570;2022-12-18T18:18:20;28.60;;;13.47;;
14778;SDS011;7481;53.750;10.570;2022-12-18T18:21:09;29.80;;;12.93;;